Terminal Aerodrome Forecast
Issued by NWS

Home | Current Version | Previous Version | Text Only | Print | Product List | Glossary On
Versions: 1 2 3 4 5 6 7 8 9 10 11 12 13
198
FTUS43 KGRB 142324
TAFAUW
TAF
KAUW 142324Z 1500/1524 14008KT 6SM -SN SCT012 OVC030
      TEMPO 1500/1504 1 1/2SM -SN BKN012
     FM150400 15006KT 5SM -SN SCT009 OVC018
      TEMPO 1504/1508 2SM -SN BKN009
     FM150800 16003KT 6SM -SN BR BKN007 OVC015
     FM151500 23004KT 6SM BR SCT007 OVC015
     FM151800 23004KT P6SM SCT012 BKN020=

USA.gov is the U.S. government's official web portal to all federal, state and local government web resources and services.